Time,TemperatureF,DewpointF,PressureIn,WindDirection,WindDirectionDegrees,WindSpeedMPH,WindSpeedGustMPH,Humidity,HourlyPrecipIn,Conditions,Clouds,dailyrainin,SoftwareType,DateUTC
2013-03-25 00:00:00,35.0,24.8,29.84,ENE,67,0.0,4.0,66,0.00,,,-99.99,Weather View 32 v60,2013-03-25 04:00:00,
2013-03-25 00:05:00,35.0,24.8,29.84,ENE,67,0.0,4.0,66,0.00,,,-99.99,Weather View 32 v60,2013-03-25 04:05:00,
2013-03-25 00:09:00,35.0,24.8,29.84,ENE,67,0.0,4.0,66,0.00,,,-99.99,Weather View 32 v60,2013-03-25 04:09:00,
2013-03-25 00:10:00,35.0,25.1,29.83,ENE,67,0.0,3.0,67,0.00,,,-99.99,Weather View 32 v60,2013-03-25 04:10:00,
2013-03-25 00:15:00,35.0,24.8,29.83,ENE,67,0.0,2.0,66,0.00,,,-99.99,Weather View 32 v60,2013-03-25 04:15:00,
2013-03-25 00:25:00,35.0,24.8,29.83,East,90,0.0,0.0,66,0.00,,,-99.99,Weather View 32 v60,2013-03-25 04:25:00,
2013-03-25 00:35:00,35.0,24.8,29.84,East,90,0.0,0.0,66,0.00,,,-99.99,Weather View 32 v60,2013-03-25 04:35:00,
2013-03-25 00:40:00,35.0,24.8,29.84,East,90,0.0,0.0,66,0.00,,,-99.99,Weather View 32 v60,2013-03-25 04:40:00,
2013-03-25 00:45:00,35.0,25.1,29.84,East,90,0.0,0.0,67,0.00,,,-99.99,Weather View 32 v60,2013-03-25 04:45:00,
2013-03-25 00:55:00,35.0,24.8,29.84,East,90,0.0,0.0,66,0.00,,,-99.99,Weather View 32 v60,2013-03-25 04:55:00,
2013-03-25 01:00:00,35.0,25.1,29.84,East,90,0.0,0.0,67,0.00,,,-99.99,Weather View 32 v60,2013-03-25 05:00:00,
2013-03-25 01:10:00,34.0,24.2,29.84,East,90,0.0,0.0,67,0.00,,,-99.99,Weather View 32 v60,2013-03-25 05:10:00,
2013-03-25 01:20:00,34.0,25.6,29.84,NE,45,0.0,0.0,71,0.00,,,-99.99,Weather View 32 v60,2013-03-25 05:20:00,
2013-03-25 01:25:00,34.0,25.6,29.84,NNE,22,0.0,4.0,71,0.00,,,-99.99,Weather View 32 v60,2013-03-25 05:25:00,
2013-03-25 01:30:00,34.0,25.6,29.82,NNE,22,0.0,4.0,71,0.00,,,-99.99,Weather View 32 v60,2013-03-25 05:30:00,
2013-03-25 01:40:00,34.0,24.9,29.82,North,360,0.0,4.0,69,0.00,,,-99.99,Weather View 32 v60,2013-03-25 05:40:00,
2013-03-25 01:50:00,34.0,25.6,29.82,NE,45,0.0,7.0,71,0.00,,,-99.99,Weather View 32 v60,2013-03-25 05:50:00,
2013-03-25 02:00:00,35.0,26.2,29.82,NNE,22,0.0,7.0,70,0.00,,,-99.99,Weather View 32 v60,2013-03-25 06:00:00,
2013-03-25 02:05:00,35.0,26.2,29.82,North,360,4.0,7.0,70,0.00,,,-99.99,Weather View 32 v60,2013-03-25 06:05:00,
2013-03-25 02:11:00,35.0,26.2,29.82,NE,45,0.0,7.0,70,0.00,,,-99.99,Weather View 32 v60,2013-03-25 06:11:00,
2013-03-25 02:20:00,35.0,25.9,29.81,North,360,2.0,7.0,69,0.00,,,-99.99,Weather View 32 v60,2013-03-25 06:20:00,
2013-03-25 02:25:00,35.0,26.2,29.81,NNE,22,0.0,8.0,70,0.00,,,-99.99,Weather View 32 v60,2013-03-25 06:25:00,
2013-03-25 02:35:00,35.0,26.2,29.80,NNE,22,0.0,8.0,70,0.00,,,-99.99,Weather View 32 v60,2013-03-25 06:35:00,
2013-03-25 02:40:00,35.0,25.9,29.80,NNE,22,2.0,8.0,69,0.00,,,-99.99,Weather View 32 v60,2013-03-25 06:40:00,
2013-03-25 02:45:00,34.0,24.9,29.80,North,360,0.0,8.0,69,0.00,,,-99.99,Weather View 32 v60,2013-03-25 06:45:00,
2013-03-25 02:55:00,34.0,24.9,29.79,NE,45,3.0,8.0,69,0.00,,,-99.99,Weather View 32 v60,2013-03-25 06:55:00,
2013-03-25 03:00:00,34.0,24.9,29.78,NE,45,2.0,8.0,69,0.00,,,-99.99,Weather View 32 v60,2013-03-25 07:00:00,
2013-03-25 03:10:00,34.0,25.6,29.77,North,360,2.0,8.0,71,0.00,,,-99.99,Weather View 32 v60,2013-03-25 07:10:00,
2013-03-25 03:15:00,34.0,25.6,29.77,NNE,22,0.0,8.0,71,0.00,,,-99.99,Weather View 32 v60,2013-03-25 07:15:00,
2013-03-25 03:25:00,34.0,25.2,29.77,NE,45,5.0,8.0,70,0.00,,,-99.99,Weather View 32 v60,2013-03-25 07:25:00,
2013-03-25 03:30:00,34.0,25.6,29.76,North,360,3.0,8.0,71,0.00,,,-99.99,Weather View 32 v60,2013-03-25 07:30:00,
2013-03-25 03:40:00,35.0,26.5,29.75,NNW,337,0.0,10.0,71,0.00,,,-99.99,Weather View 32 v60,2013-03-25 07:40:00,
2013-03-25 03:45:00,34.0,25.6,29.75,NE,45,2.0,10.0,71,0.00,,,-99.99,Weather View 32 v60,2013-03-25 07:45:00,
2013-03-25 03:55:00,35.0,25.9,29.75,NNE,22,5.0,12.0,69,0.00,,,-99.99,Weather View 32 v60,2013-03-25 07:55:00,
2013-03-25 04:05:00,35.0,25.9,29.74,North,360,0.0,12.0,69,0.00,,,-99.99,Weather View 32 v60,2013-03-25 08:05:00,
2013-03-25 04:10:00,35.0,25.9,29.74,NE,45,7.0,12.0,69,0.00,,,-99.99,Weather View 32 v60,2013-03-25 08:10:00,
2013-03-25 04:20:00,35.0,25.9,29.73,NNE,22,9.0,12.0,69,0.00,,,-99.99,Weather View 32 v60,2013-03-25 08:20:00,
2013-03-25 04:25:00,35.0,25.9,29.73,NE,45,0.0,12.0,69,0.00,,,-99.99,Weather View 32 v60,2013-03-25 08:25:00,
2013-03-25 04:35:00,35.0,25.9,29.73,NE,45,3.0,12.0,69,0.00,,,-99.99,Weather View 32 v60,2013-03-25 08:35:00,
2013-03-25 04:40:00,35.0,25.9,29.73,North,360,5.0,12.0,69,0.00,,,-99.99,Weather View 32 v60,2013-03-25 08:40:00,
2013-03-25 04:49:00,35.0,25.9,29.73,North,360,2.0,12.0,69,0.00,,,-99.99,Weather View 32 v60,2013-03-25 08:49:00,
2013-03-25 04:55:00,35.0,25.9,29.73,NNE,22,0.0,11.0,69,0.00,,,-99.99,Weather View 32 v60,2013-03-25 08:55:00,
2013-03-25 05:00:00,35.0,26.2,29.73,NNE,22,0.0,11.0,70,0.00,,,-99.99,Weather View 32 v60,2013-03-25 09:00:00,
2013-03-25 05:05:00,35.0,25.9,29.73,East,90,0.0,11.0,69,0.00,,,-99.99,Weather View 32 v60,2013-03-25 09:05:00,
2013-03-25 05:10:00,35.0,25.5,29.73,North,360,9.0,13.0,68,0.00,,,-99.99,Weather View 32 v60,2013-03-25 09:10:00,
2013-03-25 05:15:00,35.0,25.9,29.73,NE,45,5.0,13.0,69,0.00,,,-99.99,Weather View 32 v60,2013-03-25 09:15:00,
2013-03-25 05:20:00,35.0,25.9,29.73,NNE,22,1.0,13.0,69,0.00,,,-99.99,Weather View 32 v60,2013-03-25 09:20:00,
2013-03-25 05:25:00,35.0,25.9,29.73,NNW,337,6.0,13.0,69,0.00,,,-99.99,Weather View 32 v60,2013-03-25 09:25:00,
2013-03-25 05:30:00,35.0,25.9,29.72,NNE,22,3.0,13.0,69,0.00,,,-99.99,Weather View 32 v60,2013-03-25 09:30:00,
2013-03-25 05:35:00,35.0,25.9,29.72,NNE,22,4.0,13.0,69,0.00,,,-99.99,Weather View 32 v60,2013-03-25 09:35:00,
2013-03-25 05:40:00,35.0,25.9,29.72,North,360,6.0,13.0,69,0.00,,,-99.99,Weather View 32 v60,2013-03-25 09:40:00,
2013-03-25 05:49:00,35.0,25.9,29.72,ENE,67,4.0,14.0,69,0.00,,,-99.99,Weather View 32 v60,2013-03-25 09:49:00,
2013-03-25 05:55:00,35.0,25.9,29.72,North,360,4.0,14.0,69,0.00,,,-99.99,Weather View 32 v60,2013-03-25 09:55:00,
2013-03-25 06:00:00,35.0,25.9,29.72,North,360,4.0,14.0,69,0.00,,,-99.99,Weather View 32 v60,2013-03-25 10:00:00,
2013-03-25 06:10:00,35.0,25.9,29.72,North,360,10.0,14.0,69,0.00,,,-99.99,Weather View 32 v60,2013-03-25 10:10:00,
2013-03-25 06:15:00,35.0,25.9,29.72,NNE,22,6.0,14.0,69,0.00,,,-99.99,Weather View 32 v60,2013-03-25 10:15:00,
2013-03-25 06:25:00,35.0,25.9,29.72,NNE,22,2.0,14.0,69,0.00,,,-99.99,Weather View 32 v60,2013-03-25 10:25:00,
2013-03-25 06:35:00,35.0,26.2,29.72,North,360,2.0,14.0,70,0.00,,,-99.99,Weather View 32 v60,2013-03-25 10:35:00,
2013-03-25 06:40:00,35.0,25.9,29.72,NNE,22,5.0,14.0,69,0.00,,,-99.99,Weather View 32 v60,2013-03-25 10:40:00,
2013-03-25 06:45:00,35.0,25.9,29.72,NE,45,1.0,14.0,69,0.00,,,-99.99,Weather View 32 v60,2013-03-25 10:45:00,
2013-03-25 06:55:00,36.0,26.5,29.73,NNE,22,7.0,13.0,68,0.00,,,-99.99,Weather View 32 v60,2013-03-25 10:55:00,
2013-03-25 07:05:00,36.0,26.5,29.73,NE,45,3.0,13.0,68,0.00,,,-99.99,Weather View 32 v60,2013-03-25 11:05:00,
2013-03-25 07:10:00,35.0,25.9,29.74,NNE,22,0.0,13.0,69,0.00,,,-99.99,Weather View 32 v60,2013-03-25 11:10:00,
2013-03-25 07:15:00,35.0,25.9,29.74,North,360,0.0,13.0,69,0.00,,,-99.99,Weather View 32 v60,2013-03-25 11:15:00,
2013-03-25 07:25:00,36.0,26.5,29.74,NNE,22,6.0,11.0,68,0.00,,,-99.99,Weather View 32 v60,2013-03-25 11:25:00,
2013-03-25 07:35:00,36.0,27.2,29.74,NNE,22,6.0,12.0,70,0.00,,,-99.99,Weather View 32 v60,2013-03-25 11:35:00,
2013-03-25 07:45:00,35.0,27.5,29.74,North,360,10.0,14.0,74,0.00,,,-99.99,Weather View 32 v60,2013-03-25 11:45:00,
2013-03-25 07:55:00,34.0,30.3,29.74,NE,45,4.0,14.0,86,0.00,,,-99.99,Weather View 32 v60,2013-03-25 11:55:00,
2013-03-25 08:05:00,33.0,30.7,29.74,NE,45,1.0,14.0,91,0.00,,,-99.99,Weather View 32 v60,2013-03-25 12:05:00,
2013-03-25 08:10:00,32.0,30.7,29.75,North,360,0.0,14.0,95,0.00,,,-99.99,Weather View 32 v60,2013-03-25 12:10:00,
2013-03-25 08:15:00,32.0,31.5,29.75,NE,45,2.0,14.0,98,0.00,,,-99.99,Weather View 32 v60,2013-03-25 12:15:00,
2013-03-25 08:25:00,32.0,32.0,29.75,NE,45,6.0,14.0,100,0.00,,,-99.99,Weather View 32 v60,2013-03-25 12:25:00,
2013-03-25 08:35:00,31.0,31.0,29.75,NNE,22,0.0,14.0,100,0.00,,,-99.99,Weather View 32 v60,2013-03-25 12:35:00,
2013-03-25 08:45:00,31.0,31.0,29.74,North,360,2.0,13.0,100,0.00,,,-99.99,Weather View 32 v60,2013-03-25 12:45:00,
2013-03-25 08:55:00,31.0,31.0,29.74,NE,45,2.0,11.0,100,0.00,,,-99.99,Weather View 32 v60,2013-03-25 12:55:00,
2013-03-25 09:00:00,31.0,31.0,29.74,NNW,337,0.0,10.0,100,0.00,,,-99.99,Weather View 32 v60,2013-03-25 13:00:00,
2013-03-25 09:10:00,31.0,31.0,29.73,NNE,22,5.0,9.0,100,0.00,,,-99.99,Weather View 32 v60,2013-03-25 13:10:00,
2013-03-25 09:15:00,31.0,31.0,29.73,NNE,22,6.0,9.0,100,0.00,,,-99.99,Weather View 32 v60,2013-03-25 13:15:00,
2013-03-25 09:25:00,31.0,31.0,29.73,NNE,22,2.0,9.0,100,0.00,,,-99.99,Weather View 32 v60,2013-03-25 13:25:00,
2013-03-25 09:30:00,31.0,31.0,29.73,NE,45,0.0,9.0,100,0.00,,,-99.99,Weather View 32 v60,2013-03-25 13:30:00,
2013-03-25 09:40:00,32.0,32.0,29.73,NNE,22,0.0,9.0,100,0.00,,,-99.99,Weather View 32 v60,2013-03-25 13:40:00,
2013-03-25 09:45:00,32.0,32.0,29.73,North,360,0.0,9.0,100,0.00,,,-99.99,Weather View 32 v60,2013-03-25 13:45:00,
2013-03-25 09:55:00,32.0,32.0,29.73,NNE,22,3.0,9.0,100,0.00,,,-99.99,Weather View 32 v60,2013-03-25 13:55:00,
2013-03-25 10:05:00,32.0,32.0,29.72,North,360,1.0,9.0,100,0.00,,,-99.99,Weather View 32 v60,2013-03-25 14:05:00,
2013-03-25 10:10:00,32.0,32.0,29.72,North,360,3.0,9.0,100,0.00,,,-99.99,Weather View 32 v60,2013-03-25 14:10:00,
2013-03-25 10:15:00,32.0,32.0,29.72,NNE,22,5.0,9.0,100,0.00,,,-99.99,Weather View 32 v60,2013-03-25 14:15:00,
2013-03-25 10:25:00,32.0,32.0,29.72,NNE,22,0.0,9.0,100,0.00,,,-99.99,Weather View 32 v60,2013-03-25 14:25:00,
2013-03-25 10:35:00,32.0,32.0,29.72,NNE,22,2.0,9.0,100,0.00,,,-99.99,Weather View 32 v60,2013-03-25 14:35:00,
2013-03-25 10:45:00,32.0,32.0,29.72,North,360,4.0,10.0,100,0.00,,,-99.99,Weather View 32 v60,2013-03-25 14:45:00,
2013-03-25 10:55:00,32.0,32.0,29.72,NNE,22,6.0,11.0,100,0.00,,,-99.99,Weather View 32 v60,2013-03-25 14:55:00,
2013-03-25 11:05:00,32.0,32.0,29.72,NNE,22,6.0,11.0,100,0.00,,,-99.99,Weather View 32 v60,2013-03-25 15:05:00,
2013-03-25 11:10:00,32.0,32.0,29.71,North,360,4.0,11.0,100,0.00,,,-99.99,Weather View 32 v60,2013-03-25 15:10:00,
2013-03-25 11:16:00,32.0,32.0,29.71,ENE,67,5.0,12.0,100,0.00,,,-99.99,Weather View 32 v60,2013-03-25 15:16:00,
2013-03-25 11:25:00,32.0,32.0,29.70,NNW,337,3.0,13.0,100,0.00,,,-99.99,Weather View 32 v60,2013-03-25 15:25:00,
2013-03-25 11:30:00,32.0,32.0,29.70,NNE,22,4.0,13.0,100,0.00,,,-99.99,Weather View 32 v60,2013-03-25 15:30:00,
2013-03-25 11:40:00,32.0,32.0,29.70,NNE,22,7.0,17.0,100,0.00,,,-99.99,Weather View 32 v60,2013-03-25 15:40:00,
2013-03-25 11:49:00,32.0,32.0,29.69,NE,45,7.0,17.0,100,0.00,,,-99.99,Weather View 32 v60,2013-03-25 15:49:00,
2013-03-25 11:55:00,32.0,32.0,29.69,North,360,3.0,17.0,100,0.00,,,-99.99,Weather View 32 v60,2013-03-25 15:55:00,
2013-03-25 12:00:00,32.0,32.0,29.69,NNE,22,3.0,17.0,100,0.00,,,-99.99,Weather View 32 v60,2013-03-25 16:00:00,
2013-03-25 12:05:00,32.0,32.0,29.69,NE,45,4.0,17.0,100,0.00,,,-99.99,Weather View 32 v60,2013-03-25 16:05:00,
2013-03-25 12:10:00,32.0,32.0,29.69,NNE,22,2.0,17.0,100,0.00,,,-99.99,Weather View 32 v60,2013-03-25 16:10:00,
2013-03-25 12:17:00,32.0,32.0,29.69,North,360,2.0,17.0,100,0.00,,,-99.99,Weather View 32 v60,2013-03-25 16:17:00,
2013-03-25 12:25:00,32.0,32.0,29.68,NNE,22,5.0,17.0,100,0.01,,,-99.99,Weather View 32 v60,2013-03-25 16:25:00,
2013-03-25 12:30:00,32.0,32.0,29.68,North,360,7.0,17.0,100,0.01,,,-99.99,Weather View 32 v60,2013-03-25 16:30:00,
2013-03-25 12:40:00,32.0,32.0,29.68,North,360,4.0,17.0,100,0.01,,,-99.99,Weather View 32 v60,2013-03-25 16:40:00,
2013-03-25 12:49:00,32.0,32.0,29.66,NE,45,5.0,17.0,100,0.01,,,-99.99,Weather View 32 v60,2013-03-25 16:49:00,
2013-03-25 12:55:00,33.0,33.0,29.66,NE,45,10.0,17.0,100,0.01,,,-99.99,Weather View 32 v60,2013-03-25 16:55:00,
2013-03-25 13:00:00,33.0,33.0,29.66,NE,45,2.0,17.0,100,0.01,,,-99.99,Weather View 32 v60,2013-03-25 17:00:00,
2013-03-25 13:10:00,33.0,33.0,29.66,North,360,9.0,17.0,100,0.03,,,-99.99,Weather View 32 v60,2013-03-25 17:10:00,
2013-03-25 13:15:00,33.0,33.0,29.66,NNW,337,1.0,17.0,100,0.03,,,-99.99,Weather View 32 v60,2013-03-25 17:15:00,
2013-03-25 13:25:00,33.0,33.0,29.65,NE,45,10.0,17.0,100,0.02,,,-99.99,Weather View 32 v60,2013-03-25 17:25:00,
2013-03-25 13:30:00,33.0,33.0,29.65,North,360,6.0,17.0,100,0.02,,,-99.99,Weather View 32 v60,2013-03-25 17:30:00,
2013-03-25 13:35:00,33.0,32.7,29.65,NNE,22,7.0,19.0,99,0.02,,,-99.99,Weather View 32 v60,2013-03-25 17:35:00,
2013-03-25 13:45:00,33.0,32.5,29.64,North,360,6.0,19.0,98,0.03,,,-99.99,Weather View 32 v60,2013-03-25 17:45:00,
2013-03-25 13:55:00,34.0,34.0,29.64,North,360,7.0,19.0,100,0.03,,,-99.99,Weather View 32 v60,2013-03-25 17:55:00,
2013-03-25 14:00:00,33.0,32.7,29.64,NNE,22,5.0,19.0,99,0.03,,,-99.99,Weather View 32 v60,2013-03-25 18:00:00,
2013-03-25 14:10:00,33.0,33.0,29.63,NNE,22,5.0,19.0,100,0.01,,,-99.99,Weather View 32 v60,2013-03-25 18:10:00,
2013-03-25 14:18:00,33.0,32.7,29.63,NW,315,3.0,19.0,99,0.03,,,-99.99,Weather View 32 v60,2013-03-25 18:18:00,
2013-03-25 14:25:00,34.0,33.7,29.63,NNE,22,0.0,19.0,99,0.03,,,-99.99,Weather View 32 v60,2013-03-25 18:25:00,
2013-03-25 14:35:00,34.0,32.7,29.63,NNW,337,3.0,18.0,95,0.03,,,-99.99,Weather View 32 v60,2013-03-25 18:35:00,
2013-03-25 14:40:00,35.0,33.7,29.63,NNW,337,5.0,17.0,95,0.03,,,-99.99,Weather View 32 v60,2013-03-25 18:40:00,
2013-03-25 14:45:00,35.0,33.7,29.63,North,360,6.0,17.0,95,0.02,,,-99.99,Weather View 32 v60,2013-03-25 18:45:00,
2013-03-25 14:55:00,35.0,33.4,29.62,NNW,337,0.0,17.0,94,0.03,,,-99.99,Weather View 32 v60,2013-03-25 18:55:00,
2013-03-25 15:05:00,35.0,33.7,29.63,NNE,22,5.0,17.0,95,0.03,,,-99.99,Weather View 32 v60,2013-03-25 19:05:00,
2013-03-25 15:15:00,35.0,33.2,29.63,NW,315,0.0,17.0,93,0.01,,,-99.99,Weather View 32 v60,2013-03-25 19:15:00,
2013-03-25 15:20:00,35.0,33.7,29.63,NE,45,7.0,17.0,95,0.03,,,-99.99,Weather View 32 v60,2013-03-25 19:20:00,
2013-03-25 15:30:00,34.0,33.2,29.63,North,360,7.0,17.0,97,0.03,,,-99.99,Weather View 32 v60,2013-03-25 19:30:00,
2013-03-25 15:35:00,34.0,33.7,29.63,NNE,22,5.0,17.0,99,0.03,,,-99.99,Weather View 32 v60,2013-03-25 19:35:00,
2013-03-25 15:40:00,34.0,33.7,29.64,NNW,337,0.0,17.0,99,0.03,,,-99.99,Weather View 32 v60,2013-03-25 19:40:00,
2013-03-25 15:49:00,34.0,34.0,29.64,NE,45,3.0,13.0,100,0.03,,,-99.99,Weather View 32 v60,2013-03-25 19:49:00,
2013-03-25 15:55:00,34.0,34.0,29.64,NNE,22,3.0,13.0,100,0.02,,,-99.99,Weather View 32 v60,2013-03-25 19:55:00,
2013-03-25 16:00:00,34.0,34.0,29.64,North,360,0.0,13.0,100,0.02,,,-99.99,Weather View 32 v60,2013-03-25 20:00:00,
2013-03-25 16:10:00,34.0,34.0,29.64,North,360,3.0,13.0,100,0.03,,,-99.99,Weather View 32 v60,2013-03-25 20:10:00,
2013-03-25 16:19:00,34.0,34.0,29.64,NNE,22,0.0,13.0,100,0.03,,,-99.99,Weather View 32 v60,2013-03-25 20:19:00,
2013-03-25 16:25:00,34.0,34.0,29.64,NW,315,0.0,13.0,100,0.01,,,-99.99,Weather View 32 v60,2013-03-25 20:25:00,
2013-03-25 16:35:00,34.0,34.0,29.64,NW,315,0.0,9.0,100,0.03,,,-99.99,Weather View 32 v60,2013-03-25 20:35:00,
2013-03-25 16:40:00,34.0,34.0,29.64,NW,315,0.0,9.0,100,0.03,,,-99.99,Weather View 32 v60,2013-03-25 20:40:00,
2013-03-25 16:45:00,34.0,34.0,29.64,NNW,337,1.0,8.0,100,0.03,,,-99.99,Weather View 32 v60,2013-03-25 20:45:00,
2013-03-25 16:55:00,34.0,34.0,29.64,ENE,67,3.0,5.0,100,0.03,,,-99.99,Weather View 32 v60,2013-03-25 20:55:00,
2013-03-25 17:05:00,34.0,34.0,29.64,NNW,337,0.0,5.0,100,0.02,,,-99.99,Weather View 32 v60,2013-03-25 21:05:00,
2013-03-25 17:10:00,34.0,34.0,29.64,West,270,0.0,5.0,100,0.02,,,-99.99,Weather View 32 v60,2013-03-25 21:10:00,
2013-03-25 17:15:00,34.0,34.0,29.64,West,270,0.0,5.0,100,0.02,,,-99.99,Weather View 32 v60,2013-03-25 21:15:00,
2013-03-25 17:25:00,35.0,35.0,29.64,West,270,0.0,5.0,100,0.02,,,-99.99,Weather View 32 v60,2013-03-25 21:25:00,
2013-03-25 17:35:00,34.0,34.0,29.65,NW,315,0.0,5.0,100,0.00,,,-99.99,Weather View 32 v60,2013-03-25 21:35:00,
2013-03-25 17:45:00,34.0,34.0,29.65,West,270,3.0,4.0,100,0.01,,,-99.99,Weather View 32 v60,2013-03-25 21:45:00,
2013-03-25 17:55:00,34.0,34.0,29.65,WNW,292,0.0,4.0,100,0.01,,,-99.99,Weather View 32 v60,2013-03-25 21:55:00,
2013-03-25 18:00:00,34.0,34.0,29.65,West,270,0.0,4.0,100,0.01,,,-99.99,Weather View 32 v60,2013-03-25 22:00:00,
2013-03-25 18:10:00,34.0,34.0,29.66,West,270,0.0,5.0,100,0.01,,,-99.99,Weather View 32 v60,2013-03-25 22:10:00,
2013-03-25 18:15:00,34.0,34.0,29.66,West,270,0.0,5.0,100,0.01,,,-99.99,Weather View 32 v60,2013-03-25 22:15:00,
2013-03-25 18:20:00,34.0,34.0,29.66,West,270,0.0,5.0,100,0.03,,,-99.99,Weather View 32 v60,2013-03-25 22:20:00,
2013-03-25 18:30:00,34.0,34.0,29.66,West,270,0.0,5.0,100,0.03,,,-99.99,Weather View 32 v60,2013-03-25 22:30:00,
2013-03-25 18:40:00,34.0,34.0,29.67,WSW,247,0.0,6.0,100,0.03,,,-99.99,Weather View 32 v60,2013-03-25 22:40:00,
2013-03-25 18:49:00,34.0,34.0,29.68,WSW,247,2.0,6.0,100,0.02,,,-99.99,Weather View 32 v60,2013-03-25 22:49:00,
2013-03-25 18:55:00,34.0,34.0,29.68,West,270,0.0,6.0,100,0.02,,,-99.99,Weather View 32 v60,2013-03-25 22:55:00,
2013-03-25 19:00:00,34.0,34.0,29.68,West,270,2.0,6.0,100,0.02,,,-99.99,Weather View 32 v60,2013-03-25 23:00:00,
2013-03-25 19:05:00,33.0,33.0,29.68,West,270,0.0,7.0,100,0.02,,,-99.99,Weather View 32 v60,2013-03-25 23:05:00,
2013-03-25 19:15:00,34.0,34.0,29.68,West,270,0.0,7.0,100,0.02,,,-99.99,Weather View 32 v60,2013-03-25 23:15:00,
2013-03-25 19:21:00,34.0,34.0,29.69,WNW,292,0.0,7.0,100,0.00,,,-99.99,Weather View 32 v60,2013-03-25 23:21:00,
2013-03-25 19:30:00,34.0,34.0,29.69,WNW,292,0.0,7.0,100,0.01,,,-99.99,Weather View 32 v60,2013-03-25 23:30:00,
2013-03-25 19:40:00,34.0,34.0,29.70,WSW,247,0.0,7.0,100,0.01,,,-99.99,Weather View 32 v60,2013-03-25 23:40:00,
2013-03-25 19:45:00,34.0,34.0,29.70,WSW,247,0.0,7.0,100,0.01,,,-99.99,Weather View 32 v60,2013-03-25 23:45:00,
2013-03-25 19:55:00,34.0,34.0,29.70,West,270,0.0,7.0,100,0.01,,,-99.99,Weather View 32 v60,2013-03-25 23:55:00,
2013-03-25 20:05:00,34.0,34.0,29.71,West,270,0.0,4.0,100,0.03,,,-99.99,Weather View 32 v60,2013-03-26 00:05:00,
2013-03-25 20:10:00,34.0,34.0,29.72,WSW,247,0.0,4.0,100,0.03,,,-99.99,Weather View 32 v60,2013-03-26 00:10:00,
2013-03-25 20:15:00,34.0,34.0,29.72,West,270,0.0,4.0,100,0.03,,,-99.99,Weather View 32 v60,2013-03-26 00:15:00,
2013-03-25 20:21:00,34.0,34.0,29.72,WNW,292,0.0,4.0,100,0.03,,,-99.99,Weather View 32 v60,2013-03-26 00:21:00,
2013-03-25 20:30:00,34.0,34.0,29.72,West,270,0.0,4.0,100,0.02,,,-99.99,Weather View 32 v60,2013-03-26 00:30:00,
2013-03-25 20:35:00,34.0,34.0,29.72,West,270,0.0,4.0,100,0.02,,,-99.99,Weather View 32 v60,2013-03-26 00:35:00,
2013-03-25 20:45:00,34.0,34.0,29.73,West,270,0.0,5.0,100,0.02,,,-99.99,Weather View 32 v60,2013-03-26 00:45:00,
2013-03-25 20:55:00,34.0,34.0,29.73,West,270,0.0,5.0,100,0.03,,,-99.99,Weather View 32 v60,2013-03-26 00:55:00,
2013-03-25 21:05:00,34.0,34.0,29.74,West,270,3.0,5.0,100,0.01,,,-99.99,Weather View 32 v60,2013-03-26 01:05:00,
2013-03-25 21:10:00,34.0,34.0,29.74,West,270,0.0,5.0,100,0.01,,,-99.99,Weather View 32 v60,2013-03-26 01:10:00,
2013-03-25 21:15:00,34.0,34.0,29.74,WNW,292,1.0,5.0,100,0.03,,,-99.99,Weather View 32 v60,2013-03-26 01:15:00,
2013-03-25 21:20:00,34.0,34.0,29.74,WSW,247,0.0,5.0,100,0.03,,,-99.99,Weather View 32 v60,2013-03-26 01:20:00,
2013-03-25 21:25:00,34.0,34.0,29.74,West,270,0.0,5.0,100,0.03,,,-99.99,Weather View 32 v60,2013-03-26 01:25:00,
2013-03-25 21:30:00,34.0,34.0,29.74,WNW,292,3.0,6.0,100,0.03,,,-99.99,Weather View 32 v60,2013-03-26 01:30:00,
2013-03-25 21:35:00,34.0,34.0,29.74,West,270,0.0,6.0,100,0.03,,,-99.99,Weather View 32 v60,2013-03-26 01:35:00,
2013-03-25 21:45:00,34.0,34.0,29.75,WSW,247,0.0,6.0,100,0.03,,,-99.99,Weather View 32 v60,2013-03-26 01:45:00,
2013-03-25 21:55:00,34.0,34.0,29.75,WSW,247,3.0,6.0,100,0.02,,,-99.99,Weather View 32 v60,2013-03-26 01:55:00,
2013-03-25 22:00:00,34.0,34.0,29.76,WNW,292,3.0,6.0,100,0.03,,,-99.99,Weather View 32 v60,2013-03-26 02:00:00,
2013-03-25 22:05:00,34.0,34.0,29.76,WNW,292,0.0,6.0,100,0.03,,,-99.99,Weather View 32 v60,2013-03-26 02:05:00,
2013-03-25 22:10:00,34.0,34.0,29.76,WNW,292,0.0,6.0,100,0.03,,,-99.99,Weather View 32 v60,2013-03-26 02:10:00,
2013-03-25 22:15:00,34.0,34.0,29.76,WNW,292,0.0,6.0,100,0.01,,,-99.99,Weather View 32 v60,2013-03-26 02:15:00,
2013-03-25 22:22:00,34.0,34.0,29.76,West,270,0.0,6.0,100,0.01,,,-99.99,Weather View 32 v60,2013-03-26 02:22:00,
2013-03-25 22:30:00,34.0,34.0,29.76,SW,225,0.0,6.0,100,0.03,,,-99.99,Weather View 32 v60,2013-03-26 02:30:00,
2013-03-25 22:35:00,34.0,34.0,29.76,West,270,0.0,4.0,100,0.03,,,-99.99,Weather View 32 v60,2013-03-26 02:35:00,
2013-03-25 22:45:00,34.0,34.0,29.76,West,270,0.0,4.0,100,0.03,,,-99.99,Weather View 32 v60,2013-03-26 02:45:00,
2013-03-25 22:55:00,34.0,34.0,29.76,WNW,292,0.0,4.0,100,0.03,,,-99.99,Weather View 32 v60,2013-03-26 02:55:00,
2013-03-25 23:05:00,34.0,34.0,29.77,West,270,0.0,5.0,100,0.02,,,-99.99,Weather View 32 v60,2013-03-26 03:05:00,
2013-03-25 23:10:00,34.0,34.0,29.77,WNW,292,0.0,5.0,100,0.03,,,-99.99,Weather View 32 v60,2013-03-26 03:10:00,
2013-03-25 23:20:00,34.0,34.0,29.77,WNW,292,0.0,5.0,100,0.03,,,-99.99,Weather View 32 v60,2013-03-26 03:20:00,
2013-03-25 23:25:00,34.0,34.0,29.77,WSW,247,3.0,5.0,100,0.01,,,-99.99,Weather View 32 v60,2013-03-26 03:25:00,
2013-03-25 23:35:00,34.0,34.0,29.77,West,270,0.0,5.0,100,0.03,,,-99.99,Weather View 32 v60,2013-03-26 03:35:00,
2013-03-25 23:45:00,34.0,34.0,29.77,West,270,0.0,5.0,100,0.03,,,-99.99,Weather View 32 v60,2013-03-26 03:45:00,
2013-03-25 23:55:00,33.0,33.0,29.77,West,270,0.0,5.0,100,0.03,,,-99.99,Weather View 32 v60,2013-03-26 03:55:00,